createdAt,value
2018-07-11T00:00:21.725Z,7.37
2018-07-11T00:02:50.329Z,5.93
2018-07-11T00:05:18.752Z,7.10
2018-07-11T00:07:47.247Z,6.10
2018-07-11T00:10:15.677Z,6.70
2018-07-11T00:12:44.105Z,7.13
2018-07-11T00:15:12.549Z,7.27
2018-07-11T00:17:40.995Z,6.00
2018-07-11T00:20:09.509Z,11.77
2018-07-11T00:22:38.054Z,7.93
2018-07-11T00:25:06.549Z,6.10
2018-07-11T00:27:35.061Z,6.97
2018-07-11T00:30:03.557Z,7.00
2018-07-11T00:32:32.096Z,7.10
2018-07-11T00:35:00.599Z,7.73
2018-07-11T00:37:29.231Z,6.53
2018-07-11T00:39:57.684Z,8.03
2018-07-11T00:42:26.662Z,6.87
2018-07-11T00:44:55.302Z,9.17
2018-07-11T00:47:23.861Z,9.47
2018-07-11T00:49:52.424Z,8.47
2018-07-11T00:52:20.941Z,9.47
2018-07-11T00:54:49.435Z,8.57
2018-07-11T00:57:18.132Z,10.33
2018-07-11T00:59:46.601Z,7.47
2018-07-11T01:02:15.417Z,7.20
2018-07-11T01:04:43.858Z,8.40
2018-07-11T01:07:12.353Z,9.07
2018-07-11T01:09:44.871Z,7.53
2018-07-11T01:12:13.354Z,12.20
2018-07-11T01:14:41.805Z,9.73
2018-07-11T01:17:14.393Z,8.83
2018-07-11T01:19:43.589Z,9.27
2018-07-11T01:22:12.054Z,8.07
2018-07-11T01:24:40.458Z,7.37
2018-07-11T01:27:08.901Z,6.97
2018-07-11T01:29:37.355Z,10.53
2018-07-11T01:32:05.777Z,8.27
2018-07-11T01:34:34.189Z,7.60
2018-07-11T01:37:02.714Z,10.03
2018-07-11T01:39:31.098Z,8.43
2018-07-11T01:41:59.527Z,8.97
2018-07-11T01:44:27.951Z,12.73
2018-07-11T01:46:56.386Z,9.57
2018-07-11T01:49:24.762Z,9.80
2018-07-11T01:52:04.516Z,9.87
2018-07-11T01:54:32.967Z,8.13
2018-07-11T01:57:01.415Z,6.23
2018-07-11T01:59:33.683Z,10.07
2018-07-11T02:02:02.700Z,8.80
2018-07-11T02:04:32.003Z,8.27
2018-07-11T02:07:00.780Z,8.63
2018-07-11T02:09:29.619Z,9.27
2018-07-11T02:11:58.178Z,7.20
2018-07-11T02:14:26.697Z,7.63
2018-07-11T02:16:55.404Z,9.67
2018-07-11T02:19:24.019Z,10.77
2018-07-11T02:21:53.057Z,8.33
2018-07-11T02:24:23.235Z,11.43
2018-07-11T02:26:51.965Z,13.87
2018-07-11T02:29:20.520Z,12.27
2018-07-11T02:31:48.995Z,9.60
2018-07-11T02:34:21.046Z,8.77
2018-07-11T02:36:49.465Z,13.43
2018-07-11T02:39:17.979Z,12.27
2018-07-11T02:41:46.372Z,9.47
2018-07-11T02:44:14.869Z,9.07
2018-07-11T02:46:48.606Z,9.37
2018-07-11T02:49:17.142Z,13.07
2018-07-11T02:51:45.593Z,11.57
2018-07-11T02:54:14.046Z,9.90
2018-07-11T02:56:42.448Z,10.40
2018-07-11T02:59:10.857Z,9.40
2018-07-11T03:01:39.284Z,9.03
2018-07-11T03:04:07.705Z,8.07
2018-07-11T03:06:36.176Z,9.90
2018-07-11T03:09:04.570Z,7.90
2018-07-11T03:11:32.989Z,13.30
2018-07-11T03:14:01.526Z,13.63
2018-07-11T03:16:29.957Z,9.10
2018-07-11T03:18:58.575Z,8.97
2018-07-11T03:21:26.989Z,11.03
2018-07-11T03:23:55.421Z,10.93
2018-07-11T03:26:23.865Z,10.43
2018-07-11T03:28:52.281Z,10.53
2018-07-11T03:31:20.722Z,11.07
2018-07-11T03:33:49.246Z,11.90
2018-07-11T03:36:17.654Z,14.60
2018-07-11T03:38:46.099Z,14.63
2018-07-11T03:41:14.554Z,11.73
2018-07-11T03:43:42.977Z,13.87
2018-07-11T03:46:11.396Z,13.57
2018-07-11T03:48:39.875Z,12.80
2018-07-11T03:51:08.306Z,15.27
2018-07-11T03:53:36.837Z,13.40
2018-07-11T03:56:05.296Z,19.60
2018-07-11T03:58:33.836Z,15.57
2018-07-11T04:01:02.298Z,12.87
2018-07-11T04:03:30.755Z,11.47
2018-07-11T04:05:59.187Z,12.90
2018-07-11T04:08:27.662Z,11.73
2018-07-11T04:10:56.084Z,12.30
2018-07-11T04:13:24.597Z,13.23
2018-07-11T04:15:53.037Z,14.17
2018-07-11T04:18:25.624Z,10.37
2018-07-11T04:20:54.197Z,10.57
2018-07-11T04:23:22.715Z,12.33
2018-07-11T04:25:51.285Z,9.97
2018-07-11T04:28:19.817Z,13.93
2018-07-11T04:30:48.350Z,11.80
2018-07-11T04:33:16.918Z,11.33
2018-07-11T04:35:45.437Z,12.00
2018-07-11T04:38:13.926Z,12.30
2018-07-11T04:40:42.461Z,10.43
2018-07-11T04:43:11.029Z,11.77
2018-07-11T04:45:39.830Z,13.30
2018-07-11T04:48:08.884Z,12.50
2018-07-11T04:50:37.692Z,15.23
2018-07-11T04:53:09.900Z,12.73
2018-07-11T04:55:38.922Z,11.03
2018-07-11T04:58:07.345Z,15.07
2018-07-11T05:00:35.810Z,11.50
2018-07-11T05:03:04.268Z,15.13
2018-07-11T05:05:32.733Z,10.97
2018-07-11T05:08:01.244Z,11.33
2018-07-11T05:10:29.872Z,16.53
2018-07-11T05:12:58.293Z,11.60
2018-07-11T05:15:26.788Z,14.10
2018-07-11T05:17:56.161Z,13.13
2018-07-11T05:20:24.617Z,14.77
2018-07-11T05:22:53.042Z,11.77
2018-07-11T05:25:21.513Z,12.67
2018-07-11T05:27:49.938Z,15.80
2018-07-11T05:30:18.379Z,18.93
2018-07-11T05:32:46.809Z,12.43
2018-07-11T05:35:15.393Z,15.10
2018-07-11T05:37:43.930Z,13.50
2018-07-11T05:40:12.432Z,12.17
2018-07-11T05:42:40.882Z,14.50
2018-07-11T05:45:09.374Z,14.03
2018-07-11T05:47:37.816Z,13.10
2018-07-11T05:50:06.446Z,14.10
2018-07-11T05:52:34.940Z,15.07
2018-07-11T05:55:03.525Z,19.70
2018-07-11T05:57:31.985Z,13.63
2018-07-11T06:00:00.511Z,13.03
2018-07-11T06:02:28.981Z,15.53
2018-07-11T06:04:57.470Z,12.03
2018-07-11T06:07:25.944Z,14.60
2018-07-11T06:09:54.465Z,14.90
2018-07-11T06:12:22.892Z,12.40
2018-07-11T06:14:51.366Z,14.50
2018-07-11T06:17:20.125Z,18.33
2018-07-11T06:19:48.641Z,13.53
2018-07-11T06:22:17.103Z,15.17
2018-07-11T06:24:45.581Z,11.70
2018-07-11T06:27:14.036Z,13.30
2018-07-11T06:29:42.520Z,18.33
2018-07-11T06:32:10.961Z,18.20
2018-07-11T06:34:39.404Z,14.77
2018-07-11T06:37:07.833Z,17.93
2018-07-11T06:39:36.306Z,16.67
2018-07-11T06:42:04.772Z,19.77
2018-07-11T06:44:33.236Z,19.17
2018-07-11T06:47:16.172Z,18.40
2018-07-11T06:49:46.498Z,17.70
2018-07-11T06:52:15.490Z,19.37
2018-07-11T06:54:43.925Z,21.13
2018-07-11T06:57:12.398Z,24.60
2018-07-11T06:59:40.844Z,24.13
2018-07-11T07:02:09.266Z,22.93
2018-07-11T07:04:37.681Z,20.23
2018-07-11T07:07:06.073Z,20.77
2018-07-11T07:09:34.494Z,19.70
2018-07-11T07:12:02.951Z,18.97
2018-07-11T07:14:31.362Z,18.80
2018-07-11T07:16:59.762Z,14.70
2018-07-11T07:19:28.188Z,17.50
2018-07-11T07:21:56.738Z,17.13
2018-07-11T07:24:25.222Z,17.70
2018-07-11T07:26:53.643Z,17.77
2018-07-11T07:29:22.494Z,16.73
2018-07-11T07:31:50.929Z,19.27
2018-07-11T07:34:19.381Z,18.67
2018-07-11T07:36:47.810Z,15.17
2018-07-11T07:39:16.255Z,15.80
2018-07-11T07:41:44.656Z,16.27
2018-07-11T07:44:13.441Z,19.40
2018-07-11T07:46:46.081Z,19.63
2018-07-11T07:49:14.670Z,21.13
2018-07-11T07:51:43.162Z,20.63
2018-07-11T07:54:11.664Z,18.27
2018-07-11T07:56:40.187Z,18.53
2018-07-11T07:59:08.663Z,19.80
2018-07-11T08:01:37.181Z,20.67
2018-07-11T08:04:05.693Z,17.47
2018-07-11T08:06:34.146Z,19.63
2018-07-11T08:09:02.658Z,16.57
2018-07-11T08:11:31.106Z,18.83
2018-07-11T08:13:59.520Z,17.53
2018-07-11T08:16:28.052Z,17.80
2018-07-11T08:18:56.477Z,16.77
2018-07-11T08:21:24.979Z,19.10
2018-07-11T08:24:04.594Z,18.87
2018-07-11T08:26:44.373Z,20.27
2018-07-11T08:31:56.534Z,21.27
2018-07-11T08:35:04.092Z,27.73
2018-07-11T08:37:48.930Z,19.93
2018-07-11T08:41:04.634Z,18.93
2018-07-11T08:43:42.802Z,19.33
2018-07-11T08:46:22.467Z,17.33
2018-07-11T08:53:12.118Z,21.30
2018-07-11T08:55:51.717Z,18.90
2018-07-11T08:58:45.270Z,16.77
2018-07-11T09:01:55.987Z,18.40
2018-07-11T09:06:44.755Z,17.37
2018-07-11T09:11:29.590Z,16.17
2018-07-11T09:15:05.753Z,14.00
2018-07-11T09:17:50.988Z,15.43
2018-07-11T09:20:37.843Z,15.73
2018-07-11T09:23:17.698Z,15.70
2018-07-11T09:25:46.229Z,16.73
2018-07-11T09:28:14.706Z,15.47
2018-07-11T09:30:43.189Z,15.50
2018-07-11T09:33:11.714Z,13.90
2018-07-11T09:35:40.173Z,13.93
2018-07-11T09:38:08.948Z,11.83
2018-07-11T09:40:39.728Z,11.00
2018-07-11T09:43:08.249Z,10.07
2018-07-11T09:45:36.786Z,10.10
2018-07-11T09:48:05.397Z,11.17
2018-07-11T09:50:33.938Z,12.07
2018-07-11T09:53:02.378Z,9.90
2018-07-11T09:55:30.848Z,11.93
2018-07-11T09:57:59.339Z,10.00
2018-07-11T10:00:33.151Z,7.50
2018-07-11T10:03:01.651Z,9.20
2018-07-11T10:05:31.165Z,9.33
2018-07-11T10:07:59.606Z,9.90
2018-07-11T10:10:28.047Z,10.80
2018-07-11T10:12:56.488Z,7.90
2018-07-11T10:15:24.926Z,10.70
2018-07-11T10:17:53.447Z,8.93
2018-07-11T10:20:21.864Z,8.53
2018-07-11T10:22:50.373Z,10.83
2018-07-11T10:25:18.838Z,9.90
2018-07-11T10:27:47.870Z,10.90
2018-07-11T10:30:16.293Z,8.07
2018-07-11T10:32:44.815Z,9.17
2018-07-11T10:35:13.505Z,7.67
2018-07-11T10:37:41.977Z,9.63
2018-07-11T10:40:10.383Z,7.90
2018-07-11T10:42:38.897Z,7.03
2018-07-11T10:45:07.323Z,8.07
2018-07-11T10:47:35.782Z,7.67
2018-07-11T10:50:04.245Z,7.20
2018-07-11T10:52:32.701Z,6.87
2018-07-11T10:55:01.136Z,6.83
2018-07-11T10:57:29.624Z,7.97
2018-07-11T10:59:58.065Z,6.77
2018-07-11T11:02:26.481Z,5.33
2018-07-11T11:04:55.007Z,7.27
2018-07-11T11:07:23.378Z,8.00
2018-07-11T11:09:51.821Z,8.87
2018-07-11T11:12:20.293Z,11.07
2018-07-11T11:14:48.768Z,6.30
2018-07-11T11:17:17.253Z,8.00
2018-07-11T11:19:45.716Z,6.37
2018-07-11T11:22:14.300Z,6.60
2018-07-11T11:24:42.738Z,4.67
2018-07-11T11:27:11.212Z,8.07
2018-07-11T11:29:39.728Z,5.80
2018-07-11T11:32:08.197Z,4.37
2018-07-11T11:34:36.637Z,5.83
2018-07-11T11:37:05.222Z,6.30
2018-07-11T11:39:33.678Z,5.80
2018-07-11T11:42:03.227Z,5.97
2018-07-11T11:44:31.625Z,7.70
2018-07-11T11:47:02.342Z,7.70
2018-07-11T11:49:31.560Z,4.07
2018-07-11T11:52:00.241Z,4.97
2018-07-11T11:54:29.050Z,5.93
2018-07-11T11:56:57.543Z,6.70
2018-07-11T11:59:26.086Z,7.37
2018-07-11T12:01:54.566Z,7.33
2018-07-11T12:04:23.016Z,4.17
2018-07-11T12:06:51.597Z,6.00
2018-07-11T12:09:20.108Z,4.50
2018-07-11T12:11:48.558Z,7.80
2018-07-11T12:14:17.625Z,5.10
2018-07-11T12:16:46.146Z,6.53
2018-07-11T12:19:14.898Z,6.37
2018-07-11T12:21:43.369Z,6.30
2018-07-11T12:24:11.854Z,5.87
2018-07-11T12:26:40.398Z,7.73
2018-07-11T12:29:08.806Z,3.93
2018-07-11T12:31:37.798Z,3.83
2018-07-11T12:34:06.311Z,3.73
2018-07-11T12:36:34.752Z,4.37
2018-07-11T12:39:03.295Z,3.70
2018-07-11T12:41:31.858Z,4.93
2018-07-11T12:44:00.505Z,6.77
2018-07-11T12:46:28.970Z,4.20
2018-07-11T12:49:02.187Z,2.33
2018-07-11T12:51:31.014Z,3.50
2018-07-11T12:53:59.502Z,5.47
2018-07-11T12:56:28.271Z,3.70
2018-07-11T12:58:57.493Z,5.37
2018-07-11T13:01:25.966Z,6.77
2018-07-11T13:03:56.364Z,3.57
2018-07-11T13:06:26.354Z,4.13
2018-07-11T13:08:54.802Z,3.77
2018-07-11T13:11:28.844Z,6.43
2018-07-11T13:13:57.274Z,3.57
2018-07-11T13:16:25.736Z,4.97
2018-07-11T13:18:54.181Z,3.33
2018-07-11T13:21:22.615Z,8.17
2018-07-11T13:23:51.109Z,3.83
2018-07-11T13:26:19.551Z,4.77
2018-07-11T13:28:48.065Z,3.93
2018-07-11T13:31:16.477Z,4.83
2018-07-11T13:33:44.969Z,3.08
2018-07-11T13:36:13.423Z,4.57
2018-07-11T13:38:41.844Z,2.17
2018-07-11T13:41:10.447Z,5.23
2018-07-11T13:43:38.909Z,3.77
2018-07-11T13:46:07.462Z,2.63
2018-07-11T13:48:35.942Z,3.97
2018-07-11T13:51:04.386Z,4.67
2018-07-11T13:53:32.836Z,4.47
2018-07-11T13:56:01.438Z,3.47
2018-07-11T13:58:30.065Z,3.17
2018-07-11T14:00:59.050Z,3.97
2018-07-11T14:03:27.511Z,5.83
2018-07-11T14:05:56.087Z,4.22
2018-07-11T14:08:24.589Z,4.23
2018-07-11T14:10:53.226Z,3.67
2018-07-11T14:13:21.732Z,3.73
2018-07-11T14:15:50.198Z,5.63
2018-07-11T14:18:18.653Z,6.63
2018-07-11T14:20:48.085Z,4.63
2018-07-11T14:23:26.524Z,5.13
2018-07-11T14:25:55.070Z,5.97
2018-07-11T14:28:23.549Z,4.27
2018-07-11T14:30:52.092Z,4.43
2018-07-11T14:33:20.776Z,6.10
2018-07-11T14:35:49.222Z,5.57
2018-07-11T14:38:17.737Z,7.30
2018-07-11T14:40:46.400Z,2.37
2018-07-11T14:43:14.849Z,4.43
2018-07-11T14:45:43.433Z,4.13
2018-07-11T14:48:16.401Z,5.17
2018-07-11T14:50:45.401Z,3.90
2018-07-11T14:53:14.040Z,5.30
2018-07-11T14:55:42.569Z,4.73
2018-07-11T14:58:11.144Z,3.47
2018-07-11T15:00:39.610Z,3.57
2018-07-11T15:03:08.053Z,2.77
2018-07-11T15:05:36.700Z,3.33
2018-07-11T15:08:05.510Z,3.97
2018-07-11T15:10:34.188Z,4.67
2018-07-11T15:13:02.741Z,3.97
2018-07-11T15:15:31.640Z,4.90
2018-07-11T15:18:00.549Z,4.60
2018-07-11T15:20:29.081Z,4.23
2018-07-11T15:22:57.619Z,3.90
2018-07-11T15:25:26.312Z,3.13
2018-07-11T15:27:54.840Z,3.87
2018-07-11T15:30:23.325Z,3.37
2018-07-11T15:32:51.794Z,3.07
2018-07-11T15:35:20.313Z,5.47
2018-07-11T15:37:48.794Z,3.97
2018-07-11T15:40:17.339Z,3.43
2018-07-11T15:42:46.121Z,4.30
2018-07-11T15:45:14.627Z,2.97
2018-07-11T15:47:44.512Z,4.00
2018-07-11T15:50:13.002Z,5.37
2018-07-11T15:52:41.896Z,6.93
2018-07-11T15:55:10.445Z,9.10
2018-07-11T15:57:49.860Z,8.83
2018-07-11T16:00:20.143Z,8.23
2018-07-11T16:02:49.679Z,9.23
2018-07-11T16:05:20.563Z,13.97
2018-07-11T16:07:51.062Z,14.23
2018-07-11T16:10:38.501Z,11.33
2018-07-11T16:13:07.361Z,8.67
2018-07-11T16:15:35.870Z,10.30
2018-07-11T16:18:05.977Z,9.27
2018-07-11T16:20:34.676Z,10.13
2018-07-11T16:23:03.631Z,12.57
2018-07-11T16:25:32.274Z,11.43
2018-07-11T16:28:00.936Z,13.00
2018-07-11T16:30:29.478Z,10.67
2018-07-11T16:32:57.990Z,10.40
2018-07-11T16:35:26.602Z,10.87
2018-07-11T16:37:55.152Z,10.17
2018-07-11T16:40:23.666Z,11.47
2018-07-11T16:42:52.814Z,10.10
2018-07-11T16:45:21.341Z,11.60
2018-07-11T16:47:49.925Z,11.77
2018-07-11T16:50:19.061Z,11.50
2018-07-11T16:52:47.621Z,9.27
2018-07-11T16:55:16.247Z,10.47
2018-07-11T16:57:47.254Z,10.47
2018-07-11T17:00:15.813Z,10.20
2018-07-11T17:02:45.990Z,8.03
2018-07-11T17:05:20.274Z,9.30
2018-07-11T17:07:51.961Z,12.60
2018-07-11T17:10:22.408Z,11.17
2018-07-11T17:12:55.312Z,7.83
2018-07-11T17:15:25.128Z,13.03
2018-07-11T17:17:55.694Z,10.40
2018-07-11T17:20:24.922Z,10.37
2018-07-11T17:22:57.157Z,11.77
2018-07-11T17:25:30.101Z,9.47
2018-07-11T17:28:00.838Z,10.03
2018-07-11T17:30:31.725Z,10.57
2018-07-11T17:33:00.472Z,8.00
2018-07-11T17:35:29.506Z,11.37
2018-07-11T17:37:59.099Z,11.97
2018-07-11T17:40:27.618Z,7.00
2018-07-11T17:42:56.125Z,7.80
2018-07-11T17:45:24.647Z,9.43
2018-07-11T17:50:08.435Z,12.10
2018-07-11T17:53:09.690Z,10.47
2018-07-11T17:55:52.300Z,10.17
2018-07-11T17:58:24.000Z,14.23
2018-07-11T18:01:05.063Z,15.07
2018-07-11T18:03:40.997Z,12.63
2018-07-11T18:06:18.617Z,12.33
2018-07-11T18:08:52.784Z,12.77
2018-07-11T18:11:21.947Z,14.50
2018-07-11T18:13:53.128Z,12.37
2018-07-11T18:16:46.477Z,11.43
2018-07-11T18:21:40.152Z,11.67
2018-07-11T18:24:33.180Z,12.20
2018-07-11T18:29:21.678Z,8.80
2018-07-11T18:31:59.080Z,9.63
2018-07-11T18:36:43.077Z,14.57
2018-07-11T18:39:21.673Z,14.10
2018-07-11T18:43:00.054Z,14.33
2018-07-11T18:45:44.011Z,14.70
2018-07-11T18:49:23.333Z,17.23
2018-07-11T18:52:03.043Z,17.37
2018-07-11T18:55:09.083Z,18.40
2018-07-11T19:00:01.949Z,17.33
2018-07-11T19:03:18.995Z,16.37
2018-07-11T19:05:55.597Z,17.33
2018-07-11T19:08:33.487Z,19.57
2018-07-11T19:11:08.521Z,17.83
2018-07-11T19:13:42.639Z,19.33
2018-07-11T19:16:19.357Z,18.07
2018-07-11T19:18:57.311Z,21.40
2018-07-11T19:21:35.716Z,19.77
2018-07-11T19:24:10.150Z,18.80
2018-07-11T19:26:54.315Z,19.63
2018-07-11T19:29:36.738Z,19.10
2018-07-11T19:33:11.534Z,16.80
2018-07-11T19:35:51.673Z,16.80
2018-07-11T19:38:38.869Z,15.57
2018-07-11T19:41:21.933Z,20.93
2018-07-11T19:44:14.602Z,16.67
2018-07-11T19:47:21.137Z,23.43
2018-07-11T19:49:59.352Z,21.73
2018-07-11T19:52:39.469Z,20.07
2018-07-11T19:56:20.340Z,18.23
2018-07-11T19:58:49.070Z,17.40
2018-07-11T20:01:19.919Z,18.23
2018-07-11T20:03:48.426Z,20.93
2018-07-11T20:06:16.953Z,17.93
2018-07-11T20:08:45.443Z,21.40
2018-07-11T20:11:13.985Z,18.17
2018-07-11T20:13:42.542Z,18.03
2018-07-11T20:16:11.075Z,20.33
2018-07-11T20:18:39.562Z,19.00
2018-07-11T20:21:08.021Z,19.90
2018-07-11T20:23:36.545Z,19.97
2018-07-11T20:26:05.122Z,20.57
2018-07-11T20:28:33.640Z,21.43
2018-07-11T20:31:02.074Z,23.20
2018-07-11T20:33:30.599Z,22.40
2018-07-11T20:35:59.933Z,25.73
2018-07-11T20:38:28.425Z,23.00
2018-07-11T20:40:57.045Z,22.53
2018-07-11T20:43:25.623Z,23.93
2018-07-11T20:45:54.125Z,24.10
2018-07-11T20:48:22.862Z,21.90
2018-07-11T20:50:51.348Z,26.30
2018-07-11T20:53:19.851Z,23.07
2018-07-11T20:55:48.290Z,25.30
2018-07-11T20:58:28.036Z,25.23
2018-07-11T21:01:07.775Z,28.07
2018-07-11T21:07:58.389Z,20.80
2018-07-11T21:10:38.727Z,21.70
2018-07-11T21:13:57.328Z,21.60
2018-07-11T21:16:34.511Z,22.07
2018-07-11T21:19:10.858Z,21.10
2018-07-11T21:21:40.272Z,21.57
2018-07-11T21:24:09.626Z,29.33
2018-07-11T21:26:38.600Z,21.40
2018-07-11T21:29:07.297Z,20.57
2018-07-11T21:31:35.777Z,23.60
2018-07-11T21:34:04.213Z,22.83
2018-07-11T21:36:32.634Z,22.30
2018-07-11T21:39:01.087Z,21.13
2018-07-11T21:41:29.508Z,22.43
2018-07-11T21:43:58.611Z,15.83
2018-07-11T21:46:27.161Z,16.83
2018-07-11T21:48:55.602Z,14.93
2018-07-11T21:51:24.300Z,13.53
2018-07-11T21:53:53.773Z,18.67
2018-07-11T21:56:22.253Z,20.23
2018-07-11T21:58:50.837Z,15.00
2018-07-11T22:01:19.318Z,16.83
2018-07-11T22:03:47.783Z,19.17
2018-07-11T22:06:16.258Z,17.63
2018-07-11T22:08:44.737Z,17.07
2018-07-11T22:11:13.229Z,18.47
2018-07-11T22:13:41.702Z,20.33
2018-07-11T22:16:10.521Z,16.33
2018-07-11T22:18:42.766Z,18.03
2018-07-11T22:21:10.863Z,18.03
2018-07-11T22:23:38.141Z,17.17
2018-07-11T22:26:05.393Z,15.40
2018-07-11T22:28:32.686Z,17.57
2018-07-11T22:30:59.921Z,17.90
2018-07-11T22:33:27.154Z,14.97
2018-07-11T22:35:54.454Z,14.33
2018-07-11T22:38:21.658Z,16.90
2018-07-11T22:40:48.913Z,19.07
2018-07-11T22:43:16.147Z,19.20
2018-07-11T22:45:43.407Z,20.43
2018-07-11T22:48:10.655Z,21.73
2018-07-11T22:50:37.918Z,19.83
2018-07-11T22:53:05.161Z,20.17
2018-07-11T22:55:32.433Z,22.03
2018-07-11T22:57:59.676Z,20.43
2018-07-11T23:00:26.930Z,19.07
2018-07-11T23:02:54.177Z,20.57
2018-07-11T23:05:21.444Z,16.97
2018-07-11T23:07:48.680Z,21.70
2018-07-11T23:10:15.948Z,18.23
2018-07-11T23:12:43.185Z,16.80
2018-07-11T23:15:10.445Z,17.53
2018-07-11T23:17:37.712Z,20.93
2018-07-11T23:20:04.979Z,17.30
2018-07-11T23:22:32.229Z,17.87
2018-07-11T23:24:59.477Z,17.43
2018-07-11T23:27:26.735Z,19.33
2018-07-11T23:29:54.049Z,16.07
2018-07-11T23:32:21.299Z,17.93
2018-07-11T23:34:48.570Z,18.97
2018-07-11T23:37:15.806Z,21.00
2018-07-11T23:39:43.085Z,17.53
2018-07-11T23:42:10.346Z,17.70
2018-07-11T23:44:37.662Z,18.23
2018-07-11T23:47:04.926Z,17.87
2018-07-11T23:49:32.186Z,16.50
2018-07-11T23:51:59.458Z,19.00
2018-07-11T23:54:26.710Z,19.07
2018-07-11T23:56:54.342Z,18.30
2018-07-11T23:59:21.589Z,17.40
